createdAt,value
2022-10-20T00:01:57.770Z,96.20
2022-10-20T00:04:27.741Z,96.20
2022-10-20T00:06:57.808Z,96.30
2022-10-20T00:09:27.886Z,96.30
2022-10-20T00:11:57.898Z,96.30
2022-10-20T00:14:27.961Z,96.30
2022-10-20T00:16:57.937Z,96.30
2022-10-20T00:19:28.678Z,96.30
2022-10-20T00:21:59.125Z,96.30
2022-10-20T00:24:29.237Z,96.40
2022-10-20T00:26:59.217Z,96.40
2022-10-20T00:29:29.247Z,96.40
2022-10-20T00:31:59.357Z,96.40
2022-10-20T00:34:29.543Z,96.40
2022-10-20T00:36:59.589Z,96.40
2022-10-20T00:39:29.652Z,96.40
2022-10-20T00:41:59.697Z,96.40
2022-10-20T00:44:55.140Z,96.30
2022-10-20T00:47:47.234Z,96.30
2022-10-20T00:50:39.938Z,96.40
2022-10-20T00:53:10.603Z,96.40
2022-10-20T00:55:44.997Z,96.30
2022-10-20T00:58:16.103Z,96.30
2022-10-20T01:00:47.731Z,96.20
2022-10-20T01:03:26.812Z,96.20
2022-10-20T01:05:56.892Z,96.10
2022-10-20T01:08:26.979Z,96.20
2022-10-20T01:11:36.157Z,96.10
2022-10-20T01:14:38.488Z,96.00
2022-10-20T01:17:39.466Z,96.00
2022-10-20T01:20:46.995Z,95.90
2022-10-20T01:23:45.559Z,95.60
2022-10-20T01:26:54.326Z,95.60
2022-10-20T01:29:39.162Z,95.40
2022-10-20T01:32:37.958Z,95.50
2022-10-20T01:35:36.507Z,95.20
2022-10-20T01:38:24.544Z,95.10
2022-10-20T01:40:59.072Z,95.30
2022-10-20T01:43:33.585Z,95.00
2022-10-20T01:46:05.768Z,94.80
2022-10-20T01:48:39.718Z,94.40
2022-10-20T01:51:11.356Z,94.20
2022-10-20T01:53:41.377Z,94.00
2022-10-20T01:56:22.823Z,93.80
2022-10-20T01:59:25.919Z,93.80
2022-10-20T02:02:25.002Z,93.60
2022-10-20T02:05:29.671Z,93.50
2022-10-20T02:08:28.215Z,93.30
2022-10-20T02:11:04.786Z,93.00
2022-10-20T02:13:38.137Z,92.90
2022-10-20T02:16:20.319Z,92.30
2022-10-20T02:18:51.725Z,92.30
2022-10-20T02:21:21.848Z,92.20
2022-10-20T02:23:53.310Z,92.00
2022-10-20T02:26:27.168Z,92.00
2022-10-20T02:29:02.368Z,91.60
2022-10-20T02:31:32.004Z,91.50
2022-10-20T02:34:01.753Z,90.40
2022-10-20T02:36:32.276Z,89.20
2022-10-20T02:39:01.855Z,89.10
2022-10-20T02:41:32.668Z,88.80
2022-10-20T02:44:02.275Z,88.80
2022-10-20T02:46:32.306Z,88.80
2022-10-20T02:49:01.943Z,88.30
2022-10-20T02:51:35.013Z,87.90
2022-10-20T02:54:05.672Z,87.70
2022-10-20T02:56:36.002Z,87.20
2022-10-20T02:59:05.526Z,87.50
2022-10-20T03:01:35.313Z,87.50
2022-10-20T03:04:04.904Z,86.80
2022-10-20T03:06:34.471Z,86.80
2022-10-20T03:09:04.362Z,86.90
2022-10-20T03:11:34.089Z,86.60
2022-10-20T03:14:03.809Z,86.40
2022-10-20T03:16:33.398Z,86.10
2022-10-20T03:19:06.368Z,86.20
2022-10-20T03:21:37.356Z,86.20
2022-10-20T03:24:07.575Z,86.30
2022-10-20T03:26:37.412Z,86.10
2022-10-20T03:29:07.353Z,86.00
2022-10-20T03:31:37.297Z,86.00
2022-10-20T03:34:07.149Z,85.90
2022-10-20T03:36:38.211Z,85.20
2022-10-20T03:39:08.143Z,84.60
2022-10-20T03:41:38.021Z,84.60
2022-10-20T03:44:07.953Z,84.60
2022-10-20T03:46:37.857Z,84.60
2022-10-20T03:49:09.086Z,84.30
2022-10-20T03:51:38.901Z,84.40
2022-10-20T03:54:08.874Z,84.50
2022-10-20T03:56:39.019Z,84.60
2022-10-20T03:59:08.927Z,84.50
2022-10-20T04:01:38.979Z,84.50
2022-10-20T04:04:08.940Z,84.20
2022-10-20T04:06:41.361Z,84.00
2022-10-20T04:09:11.454Z,83.90
2022-10-20T04:11:41.366Z,83.80
2022-10-20T04:14:11.310Z,83.60
2022-10-20T04:16:41.313Z,83.60
2022-10-20T04:19:11.584Z,83.40
2022-10-20T04:21:41.507Z,83.70
2022-10-20T04:24:11.459Z,83.70
2022-10-20T04:26:41.409Z,83.70
2022-10-20T04:29:11.353Z,83.60
2022-10-20T04:31:44.191Z,83.70
2022-10-20T04:34:16.798Z,83.70
2022-10-20T04:36:46.762Z,83.50
2022-10-20T04:39:16.996Z,83.50
2022-10-20T04:41:46.993Z,82.90
2022-10-20T04:44:17.126Z,82.80
2022-10-20T04:46:47.444Z,82.90
2022-10-20T04:49:17.565Z,82.80
2022-10-20T04:51:47.871Z,83.00
2022-10-20T04:54:17.733Z,82.70
2022-10-20T04:56:48.094Z,82.60
2022-10-20T04:59:18.053Z,82.60
2022-10-20T05:01:47.997Z,82.80
2022-10-20T05:04:22.969Z,82.80
2022-10-20T05:06:52.966Z,82.50
2022-10-20T05:09:22.911Z,82.50
2022-10-20T05:11:52.932Z,82.40
2022-10-20T05:14:23.053Z,81.50
2022-10-20T05:16:53.869Z,80.70
2022-10-20T05:19:23.877Z,80.70
2022-10-20T05:21:53.801Z,81.10
2022-10-20T05:24:26.505Z,81.30
2022-10-20T05:26:59.216Z,81.60
2022-10-20T05:29:29.214Z,80.80
2022-10-20T05:31:59.062Z,80.90
2022-10-20T05:34:28.973Z,81.10
2022-10-20T05:36:59.063Z,81.30
2022-10-20T05:39:28.999Z,81.20
2022-10-20T05:41:58.891Z,81.10
2022-10-20T05:44:28.733Z,81.00
2022-10-20T05:46:58.658Z,80.90
2022-10-20T05:49:28.516Z,80.90
2022-10-20T05:51:58.400Z,81.10
2022-10-20T05:54:28.421Z,81.40
2022-10-20T05:56:58.333Z,81.80
2022-10-20T05:59:28.271Z,81.80
2022-10-20T06:01:58.178Z,81.30
2022-10-20T06:04:29.827Z,81.40
2022-10-20T06:07:00.387Z,81.40
2022-10-20T06:09:30.626Z,81.50
2022-10-20T06:12:01.545Z,81.70
2022-10-20T06:14:31.728Z,81.80
2022-10-20T06:17:02.875Z,81.80
2022-10-20T06:19:32.487Z,81.80
2022-10-20T06:22:05.455Z,81.70
2022-10-20T06:24:36.789Z,81.70
2022-10-20T06:27:06.477Z,81.70
2022-10-20T06:29:35.994Z,81.50
2022-10-20T06:32:05.616Z,81.50
2022-10-20T06:34:35.207Z,81.50
2022-10-20T06:37:04.759Z,81.60
2022-10-20T06:39:34.333Z,81.70
2022-10-20T06:42:09.497Z,81.70
2022-10-20T06:44:41.492Z,82.00
2022-10-20T06:47:13.101Z,82.10
2022-10-20T06:49:42.647Z,82.20
2022-10-20T06:52:13.569Z,82.00
2022-10-20T06:54:43.145Z,82.00
2022-10-20T06:57:13.038Z,81.90
2022-10-20T06:59:42.486Z,81.80
2022-10-20T07:02:14.158Z,81.60
2022-10-20T07:04:43.814Z,81.70
2022-10-20T07:07:13.324Z,81.90
2022-10-20T07:09:42.998Z,81.80
2022-10-20T07:12:13.048Z,81.80
2022-10-20T07:14:42.685Z,82.00
2022-10-20T07:17:13.382Z,82.30
2022-10-20T07:19:43.264Z,82.40
2022-10-20T07:22:13.241Z,82.50
2022-10-20T07:24:43.241Z,82.30
2022-10-20T07:27:13.126Z,82.00
2022-10-20T07:29:43.113Z,82.10
2022-10-20T07:32:13.017Z,82.30
2022-10-20T07:34:42.850Z,82.50
2022-10-20T07:37:12.674Z,82.50
2022-10-20T07:39:42.485Z,82.20
2022-10-20T07:42:12.640Z,82.30
2022-10-20T07:44:42.519Z,82.50
2022-10-20T07:47:12.395Z,82.60
2022-10-20T07:49:44.429Z,82.50
2022-10-20T07:52:17.956Z,82.60
2022-10-20T07:54:48.010Z,82.80
2022-10-20T07:57:17.943Z,83.00
2022-10-20T07:59:47.915Z,83.70
2022-10-20T08:02:18.102Z,82.80
2022-10-20T08:04:48.260Z,82.90
2022-10-20T08:07:21.266Z,82.90
2022-10-20T08:09:51.266Z,82.80
2022-10-20T08:12:21.136Z,82.90
2022-10-20T08:14:51.016Z,83.20
2022-10-20T08:17:21.372Z,83.10
2022-10-20T08:20:01.136Z,83.00
2022-10-20T08:22:30.686Z,83.20
2022-10-20T08:25:00.292Z,83.50
2022-10-20T08:27:29.814Z,83.50
2022-10-20T08:30:12.246Z,83.70
2022-10-20T08:32:42.091Z,83.60
2022-10-20T08:35:12.206Z,83.70
2022-10-20T08:37:43.569Z,83.80
2022-10-20T08:40:23.444Z,83.80
2022-10-20T08:42:54.107Z,83.70
2022-10-20T08:45:27.688Z,83.60
2022-10-20T08:48:00.514Z,83.80
2022-10-20T08:50:32.140Z,83.80
2022-10-20T08:53:03.207Z,83.80
2022-10-20T08:55:35.075Z,83.90
2022-10-20T08:58:14.379Z,84.00
2022-10-20T09:00:45.039Z,83.90
2022-10-20T09:03:32.847Z,84.00
2022-10-20T09:06:22.125Z,84.30
2022-10-20T09:08:52.058Z,84.40
2022-10-20T09:11:27.383Z,84.50
2022-10-20T09:13:57.025Z,84.60
2022-10-20T09:16:42.035Z,84.60
2022-10-20T09:19:22.387Z,84.60
2022-10-20T09:22:00.411Z,84.90
2022-10-20T09:24:31.607Z,85.00
2022-10-20T09:27:21.578Z,85.50
2022-10-20T09:29:51.256Z,85.50
2022-10-20T09:35:29.328Z,85.80
2022-10-20T09:38:26.529Z,86.60
2022-10-20T09:41:17.213Z,86.20
2022-10-20T09:43:58.216Z,86.40
2022-10-20T09:46:40.806Z,86.50
2022-10-20T09:49:23.299Z,86.60
2022-10-20T09:51:58.502Z,86.60
2022-10-20T09:54:28.948Z,86.60
2022-10-20T09:57:09.987Z,86.80
2022-10-20T09:59:43.507Z,86.90
2022-10-20T10:02:34.153Z,87.00
2022-10-20T10:05:23.675Z,87.20
2022-10-20T10:08:01.670Z,87.40
2022-10-20T10:10:33.176Z,87.50
2022-10-20T10:15:40.241Z,87.70
2022-10-20T10:18:24.893Z,87.70
2022-10-20T10:21:17.114Z,87.70
2022-10-20T10:24:00.989Z,87.70
2022-10-20T10:26:58.337Z,87.80
2022-10-20T10:29:32.114Z,87.80
2022-10-20T10:32:25.815Z,88.00
2022-10-20T10:35:19.482Z,88.20
2022-10-20T10:37:50.934Z,88.20
2022-10-20T10:40:34.438Z,88.30
2022-10-20T10:43:31.461Z,88.30
2022-10-20T10:46:10.983Z,88.40
2022-10-20T10:49:20.306Z,88.40
2022-10-20T10:52:16.923Z,88.50
2022-10-20T10:55:44.097Z,88.50
2022-10-20T10:58:43.863Z,88.70
2022-10-20T11:01:34.274Z,88.80
2022-10-20T11:04:40.706Z,88.80
2022-10-20T11:07:38.161Z,89.00
2022-10-20T11:10:46.969Z,89.20
2022-10-20T11:13:55.744Z,89.30
2022-10-20T11:16:57.076Z,89.40
2022-10-20T11:19:42.621Z,89.50
2022-10-20T11:22:44.859Z,89.50
2022-10-20T11:25:43.747Z,89.60
2022-10-20T11:28:32.231Z,89.60
2022-10-20T11:31:02.544Z,89.70
2022-10-20T11:33:45.902Z,89.70
2022-10-20T11:36:21.559Z,89.80
2022-10-20T11:38:58.015Z,89.80
2022-10-20T11:41:45.229Z,89.80
2022-10-20T11:44:37.114Z,89.90
2022-10-20T11:47:14.748Z,90.00
2022-10-20T11:49:45.606Z,90.00
2022-10-20T11:52:49.939Z,90.00
2022-10-20T11:55:58.626Z,90.00
2022-10-20T11:59:07.402Z,90.00
2022-10-20T12:02:00.570Z,90.00
2022-10-20T12:05:09.313Z,90.10
2022-10-20T12:08:30.597Z,90.10
2022-10-20T12:11:39.722Z,90.10
2022-10-20T12:14:33.726Z,90.20
2022-10-20T12:17:35.629Z,90.20
2022-10-20T12:20:44.326Z,90.30
2022-10-20T12:23:55.010Z,90.30
2022-10-20T12:27:03.708Z,90.40
2022-10-20T12:29:51.273Z,90.40
2022-10-20T12:32:53.781Z,90.50
2022-10-20T12:35:32.720Z,90.50
2022-10-20T12:38:11.707Z,90.50
2022-10-20T12:40:56.793Z,90.50
2022-10-20T12:43:47.512Z,90.60
2022-10-20T12:46:25.563Z,90.60
2022-10-20T12:49:00.379Z,90.60
2022-10-20T12:51:49.673Z,90.70
2022-10-20T12:54:44.988Z,90.70
2022-10-20T12:57:43.012Z,90.70
2022-10-20T13:00:53.030Z,90.70
2022-10-20T13:03:52.554Z,90.80
2022-10-20T13:06:42.809Z,90.80
2022-10-20T13:09:23.867Z,91.00
2022-10-20T13:12:06.026Z,90.90
2022-10-20T13:14:51.079Z,90.90
2022-10-20T13:17:27.584Z,91.00
2022-10-20T13:20:04.818Z,91.00
2022-10-20T13:22:50.413Z,91.10
2022-10-20T13:25:55.114Z,91.20
2022-10-20T13:28:30.971Z,91.20
2022-10-20T13:31:39.792Z,91.30
2022-10-20T13:34:33.695Z,91.40
2022-10-20T13:37:39.505Z,91.50
2022-10-20T13:40:24.080Z,91.60
2022-10-20T13:43:20.804Z,91.60
2022-10-20T13:46:23.960Z,91.60
2022-10-20T13:49:18.284Z,91.60
2022-10-20T13:51:53.715Z,91.70
2022-10-20T13:54:28.324Z,91.70
2022-10-20T13:56:59.008Z,91.70
2022-10-20T13:59:32.132Z,91.80
2022-10-20T14:02:21.010Z,91.80
2022-10-20T14:05:03.469Z,91.90
2022-10-20T14:07:41.865Z,92.00
2022-10-20T14:10:50.588Z,92.10
2022-10-20T14:13:24.003Z,92.20
2022-10-20T14:16:00.372Z,92.30
2022-10-20T14:18:37.608Z,92.30
2022-10-20T14:21:21.838Z,92.30
2022-10-20T14:23:53.437Z,92.30
2022-10-20T14:26:24.807Z,92.40
2022-10-20T14:28:55.331Z,92.50
2022-10-20T14:31:26.763Z,92.60
2022-10-20T14:33:56.898Z,92.60
2022-10-20T14:36:30.272Z,92.70
2022-10-20T14:39:05.806Z,92.80
2022-10-20T14:41:37.512Z,92.80
2022-10-20T14:44:17.379Z,92.80
2022-10-20T14:46:54.991Z,92.90
2022-10-20T14:49:35.687Z,92.90
2022-10-20T14:52:29.045Z,93.00
2022-10-20T14:54:59.330Z,93.10
2022-10-20T14:57:39.546Z,93.20
2022-10-20T15:00:31.072Z,93.20
2022-10-20T15:03:04.853Z,93.50
2022-10-20T15:05:39.419Z,93.60
2022-10-20T15:08:32.851Z,93.70
2022-10-20T15:11:02.921Z,93.80
2022-10-20T15:13:34.959Z,93.90
2022-10-20T15:16:06.331Z,93.90
2022-10-20T15:18:39.297Z,94.00
2022-10-20T15:21:10.791Z,94.10
2022-10-20T15:23:40.627Z,94.10
2022-10-20T15:26:16.323Z,94.20
2022-10-20T15:28:51.336Z,94.20
2022-10-20T15:31:30.603Z,94.20
2022-10-20T15:34:01.131Z,94.20
2022-10-20T15:36:41.871Z,94.30
2022-10-20T15:39:14.059Z,94.30
2022-10-20T15:41:43.947Z,94.30
2022-10-20T15:44:26.141Z,94.30
2022-10-20T15:46:56.238Z,94.30
2022-10-20T15:49:26.063Z,94.40
2022-10-20T15:51:55.916Z,94.40
2022-10-20T15:54:26.060Z,94.40
2022-10-20T15:56:55.966Z,94.40
2022-10-20T15:59:25.882Z,94.50
2022-10-20T16:01:55.762Z,94.60
2022-10-20T16:04:33.050Z,94.60
2022-10-20T16:07:03.424Z,94.70
2022-10-20T16:09:33.365Z,94.70
2022-10-20T16:12:03.174Z,94.80
2022-10-20T16:14:32.932Z,94.80
2022-10-20T16:17:02.801Z,94.80
2022-10-20T16:19:34.046Z,94.80
2022-10-20T16:22:03.994Z,94.90
2022-10-20T16:24:33.800Z,94.90
2022-10-20T16:27:07.415Z,94.90
2022-10-20T16:29:36.969Z,94.90
2022-10-20T16:32:06.639Z,95.00
2022-10-20T16:34:36.381Z,95.00
2022-10-20T16:37:06.363Z,95.10
2022-10-20T16:39:35.838Z,95.00
2022-10-20T16:42:05.384Z,95.10
2022-10-20T16:44:44.260Z,95.10
2022-10-20T16:47:13.842Z,95.20
2022-10-20T16:49:43.387Z,95.30
2022-10-20T16:52:12.998Z,95.30
2022-10-20T16:54:42.708Z,95.30
2022-10-20T16:57:14.321Z,95.40
2022-10-20T16:59:46.898Z,95.40
2022-10-20T17:02:16.443Z,95.40
2022-10-20T17:04:51.119Z,95.50
2022-10-20T17:07:20.724Z,95.50
2022-10-20T17:09:50.214Z,95.60
2022-10-20T17:12:20.307Z,95.60
2022-10-20T17:14:49.846Z,95.60
2022-10-20T17:17:19.670Z,95.60
2022-10-20T17:19:49.767Z,95.70
2022-10-20T17:22:19.364Z,95.70
2022-10-20T17:24:48.958Z,95.70
2022-10-20T17:27:18.726Z,95.80
2022-10-20T17:29:52.550Z,95.80
2022-10-20T17:32:22.098Z,95.80
2022-10-20T17:34:52.632Z,95.80
2022-10-20T17:37:22.137Z,95.90
2022-10-20T17:39:54.653Z,95.90
2022-10-20T17:42:28.197Z,96.30
2022-10-20T17:44:57.750Z,96.00
2022-10-20T17:47:27.201Z,96.00
2022-10-20T17:49:56.837Z,96.00
2022-10-20T17:52:26.332Z,96.10
2022-10-20T17:54:55.873Z,96.10
2022-10-20T17:57:25.459Z,96.10
2022-10-20T17:59:58.034Z,96.20
2022-10-20T18:02:28.812Z,96.20
2022-10-20T18:04:58.461Z,96.20
2022-10-20T18:07:28.046Z,96.20
2022-10-20T18:09:57.819Z,96.20
2022-10-20T18:12:27.379Z,96.20
2022-10-20T18:14:57.109Z,96.20
2022-10-20T18:17:26.908Z,96.20
2022-10-20T18:19:59.250Z,96.20
2022-10-20T18:22:29.478Z,96.20
2022-10-20T18:24:58.986Z,96.30
2022-10-20T18:27:28.624Z,96.30
2022-10-20T18:29:58.102Z,96.30
2022-10-20T18:32:27.593Z,96.40
2022-10-20T18:34:57.113Z,96.30
2022-10-20T18:37:26.627Z,96.40
2022-10-20T18:39:56.203Z,96.50
2022-10-20T18:42:25.808Z,96.40
2022-10-20T18:44:55.412Z,96.50
2022-10-20T18:47:24.883Z,96.40
2022-10-20T18:49:54.399Z,96.50
2022-10-20T18:52:23.948Z,96.50
2022-10-20T18:54:53.479Z,96.50
2022-10-20T18:57:23.070Z,96.60
2022-10-20T18:59:52.749Z,96.90
2022-10-20T19:02:22.215Z,96.60
2022-10-20T19:04:51.794Z,96.60
2022-10-20T19:07:21.339Z,96.70
2022-10-20T19:09:55.450Z,96.70
2022-10-20T19:12:25.292Z,96.70
2022-10-20T19:14:54.925Z,96.80
2022-10-20T19:17:24.633Z,96.80
2022-10-20T19:19:56.217Z,96.90
2022-10-20T19:22:29.177Z,96.90
2022-10-20T19:24:59.326Z,97.00
2022-10-20T19:27:29.186Z,97.00
2022-10-20T19:29:59.081Z,97.00
2022-10-20T19:32:28.962Z,97.00
2022-10-20T19:34:58.883Z,97.00
2022-10-20T19:37:28.787Z,97.00
2022-10-20T19:39:58.764Z,97.00
2022-10-20T19:42:28.572Z,97.10
2022-10-20T19:44:58.445Z,97.00
2022-10-20T19:47:28.333Z,97.10
2022-10-20T19:49:58.142Z,97.10
2022-10-20T19:52:27.997Z,97.20
2022-10-20T19:54:57.885Z,97.20
2022-10-20T19:57:27.811Z,97.20
2022-10-20T19:59:57.703Z,97.10
2022-10-20T20:02:27.511Z,97.20
2022-10-20T20:04:57.344Z,97.20
2022-10-20T20:07:27.207Z,97.20
2022-10-20T20:09:57.039Z,97.20
2022-10-20T20:12:27.039Z,97.30
2022-10-20T20:14:58.695Z,97.30
2022-10-20T20:17:29.412Z,97.30
2022-10-20T20:19:59.587Z,97.30
2022-10-20T20:22:29.466Z,97.30
2022-10-20T20:24:59.373Z,97.30
2022-10-20T20:27:29.284Z,97.30
2022-10-20T20:30:00.841Z,97.30
2022-10-20T20:32:34.541Z,97.30
2022-10-20T20:35:06.719Z,97.40
2022-10-20T20:37:37.266Z,97.50
2022-10-20T20:40:07.884Z,97.40
2022-10-20T20:42:37.713Z,97.50
2022-10-20T20:45:07.963Z,97.50
2022-10-20T20:47:37.974Z,97.50
2022-10-20T20:50:08.828Z,97.50
2022-10-20T20:52:38.599Z,97.50
2022-10-20T20:55:08.685Z,97.50
2022-10-20T20:57:38.856Z,97.50
2022-10-20T21:00:09.523Z,97.50
2022-10-20T21:02:39.332Z,97.60
2022-10-20T21:05:09.572Z,97.60
2022-10-20T21:07:39.733Z,97.60
2022-10-20T21:10:11.559Z,97.60
2022-10-20T21:12:41.592Z,97.70
2022-10-20T21:15:11.998Z,97.70
2022-10-20T21:17:42.436Z,97.70
2022-10-20T21:20:12.367Z,97.70
2022-10-20T21:22:41.898Z,97.80
2022-10-20T21:25:11.418Z,97.70
2022-10-20T21:27:40.998Z,97.80
2022-10-20T21:30:10.987Z,97.80
2022-10-20T21:32:40.719Z,97.80
2022-10-20T21:35:10.555Z,97.80
2022-10-20T21:37:40.127Z,97.80
2022-10-20T21:40:10.206Z,97.90
2022-10-20T21:42:40.081Z,97.90
2022-10-20T21:45:10.324Z,97.90
2022-10-20T21:47:39.767Z,97.90
2022-10-20T21:50:09.597Z,97.90
2022-10-20T21:52:40.465Z,97.90
2022-10-20T21:55:10.231Z,97.90
2022-10-20T21:57:40.039Z,97.90
2022-10-20T22:00:11.319Z,97.90
2022-10-20T22:02:40.759Z,98.00
2022-10-20T22:05:10.379Z,98.00
2022-10-20T22:07:40.318Z,98.00
2022-10-20T22:10:10.341Z,98.00
2022-10-20T22:12:39.820Z,98.00
2022-10-20T22:15:09.877Z,98.00
2022-10-20T22:17:40.617Z,98.00
2022-10-20T22:20:10.894Z,98.00
2022-10-20T22:22:40.595Z,98.00
2022-10-20T22:25:10.751Z,98.00
2022-10-20T22:27:43.032Z,98.00
2022-10-20T22:30:13.410Z,98.00
2022-10-20T22:32:43.150Z,98.00
2022-10-20T22:35:12.671Z,98.10
2022-10-20T22:37:42.211Z,98.10
2022-10-20T22:40:12.130Z,98.20
2022-10-20T22:42:41.766Z,98.10
2022-10-20T22:45:12.294Z,98.10
2022-10-20T22:47:41.860Z,98.10
2022-10-20T22:50:11.653Z,98.10
2022-10-20T22:52:41.288Z,98.10
2022-10-20T22:55:10.974Z,98.10
2022-10-20T22:57:40.526Z,98.10
2022-10-20T23:00:10.655Z,98.20
2022-10-20T23:02:40.532Z,98.40
2022-10-20T23:05:10.722Z,98.40
2022-10-20T23:07:40.599Z,98.40
2022-10-20T23:10:10.693Z,98.40
2022-10-20T23:12:40.573Z,98.40
2022-10-20T23:15:10.493Z,98.50
2022-10-20T23:17:41.611Z,98.50
2022-10-20T23:20:11.938Z,98.50
2022-10-20T23:22:41.827Z,98.50
2022-10-20T23:25:11.909Z,98.50
2022-10-20T23:27:41.816Z,98.50
2022-10-20T23:30:12.195Z,98.50
2022-10-20T23:32:42.263Z,98.50
2022-10-20T23:35:12.250Z,98.50
2022-10-20T23:37:42.093Z,98.50
2022-10-20T23:40:12.573Z,98.60
2022-10-20T23:42:42.286Z,98.60
2022-10-20T23:45:13.051Z,98.60
2022-10-20T23:47:42.938Z,98.60
2022-10-20T23:50:12.825Z,98.60
2022-10-20T23:52:42.661Z,98.70
2022-10-20T23:55:15.387Z,98.70
2022-10-20T23:57:45.750Z,98.70
